createdAt,value
2018-05-26T00:02:47.053Z,87.80
2018-05-26T00:07:39.284Z,89.10
2018-05-26T00:12:30.821Z,89.00
2018-05-26T00:17:22.588Z,89.40
2018-05-26T00:22:14.175Z,89.10
2018-05-26T00:27:05.659Z,89.30
2018-05-26T00:31:57.922Z,88.80
2018-05-26T00:36:49.413Z,88.60
2018-05-26T00:41:40.928Z,89.00
2018-05-26T00:46:32.585Z,89.30
2018-05-26T00:51:24.064Z,89.70
2018-05-26T00:56:15.569Z,89.90
2018-05-26T01:01:07.805Z,90.50
2018-05-26T01:05:59.326Z,90.50
2018-05-26T01:10:50.803Z,90.80
2018-05-26T01:15:42.308Z,90.70
2018-05-26T01:20:33.803Z,90.80
2018-05-26T01:25:25.319Z,91.00
2018-05-26T01:30:16.809Z,91.50
2018-05-26T01:35:08.331Z,91.50
2018-05-26T01:39:59.826Z,91.50
2018-05-26T01:44:51.370Z,91.60
2018-05-26T01:49:42.864Z,91.80
2018-05-26T01:54:35.105Z,92.10
2018-05-26T01:59:27.443Z,92.00
2018-05-26T02:04:18.941Z,91.90
2018-05-26T02:09:10.502Z,92.10
2018-05-26T02:14:02.047Z,92.20
2018-05-26T02:18:54.314Z,93.00
2018-05-26T02:23:46.562Z,93.10
2018-05-26T02:28:38.147Z,93.00
2018-05-26T02:33:29.659Z,93.10
2018-05-26T02:38:21.182Z,93.10
2018-05-26T02:43:12.692Z,93.40
2018-05-26T02:48:04.934Z,93.50
2018-05-26T02:52:56.453Z,93.50
2018-05-26T02:57:47.945Z,93.70
2018-05-26T03:02:39.755Z,93.90
2018-05-26T03:07:37.523Z,94.00
2018-05-26T03:12:35.241Z,94.00
2018-05-26T03:17:26.858Z,94.10
2018-05-26T03:22:19.103Z,94.40
2018-05-26T03:27:11.339Z,94.30
2018-05-26T03:32:02.839Z,94.30
2018-05-26T03:36:54.335Z,94.30
2018-05-26T03:41:46.576Z,94.50
2018-05-26T03:46:38.833Z,94.70
2018-05-26T03:51:31.073Z,94.80
2018-05-26T03:56:41.960Z,94.70
2018-05-26T04:01:34.190Z,94.50
2018-05-26T04:06:25.704Z,94.40
2018-05-26T04:11:17.284Z,94.30
2018-05-26T04:16:09.568Z,94.10
2018-05-26T04:21:01.074Z,94.10
2018-05-26T04:25:53.367Z,93.80
2018-05-26T04:30:44.877Z,93.80
2018-05-26T04:35:36.359Z,93.60
2018-05-26T04:40:27.861Z,93.30
2018-05-26T04:45:19.347Z,93.00
2018-05-26T04:50:11.589Z,92.30
2018-05-26T04:55:03.653Z,92.00
2018-05-26T04:59:55.939Z,87.90
2018-05-26T05:04:47.424Z,87.70
2018-05-26T05:09:39.645Z,73.50
2018-05-26T05:14:31.161Z,73.40
2018-05-26T05:19:22.694Z,72.60
2018-05-26T05:24:14.207Z,71.50
2018-05-26T05:29:05.733Z,68.70
2018-05-26T05:33:57.977Z,65.10
2018-05-26T05:38:50.253Z,65.30
2018-05-26T05:43:41.782Z,65.20
2018-05-26T05:48:33.341Z,64.50
2018-05-26T05:53:24.889Z,64.00
2018-05-26T05:58:16.387Z,60.90
2018-05-26T06:03:07.895Z,60.80
2018-05-26T06:08:00.146Z,59.60
2018-05-26T06:12:52.379Z,59.10
2018-05-26T06:17:43.865Z,59.10
2018-05-26T06:22:35.385Z,58.20
2018-05-26T06:27:26.900Z,55.70
2018-05-26T06:32:19.139Z,54.10
2018-05-26T06:37:10.649Z,54.00
2018-05-26T06:42:02.170Z,54.70
2018-05-26T06:46:53.680Z,55.30
2018-05-26T06:51:45.572Z,54.20
2018-05-26T06:56:37.089Z,50.70
2018-05-26T07:01:28.572Z,50.40
2018-05-26T07:06:20.860Z,54.70
2018-05-26T07:11:12.364Z,54.60
2018-05-26T07:16:03.911Z,53.80
2018-05-26T07:20:55.466Z,52.50
2018-05-26T07:25:46.972Z,49.00
2018-05-26T07:30:38.494Z,49.70
2018-05-26T07:35:30.763Z,47.40
2018-05-26T07:40:22.253Z,47.20
2018-05-26T07:45:13.754Z,47.80
2018-05-26T07:50:05.249Z,47.30
2018-05-26T07:54:56.799Z,47.60
2018-05-26T07:59:48.327Z,44.50
2018-05-26T08:04:39.807Z,45.00
2018-05-26T08:09:31.421Z,42.90
2018-05-26T08:14:22.943Z,41.70
2018-05-26T08:19:14.477Z,42.70
2018-05-26T08:24:05.994Z,44.80
2018-05-26T08:28:57.544Z,40.10
2018-05-26T08:33:49.085Z,40.80
2018-05-26T08:38:40.576Z,39.80
2018-05-26T08:43:32.816Z,44.80
2018-05-26T08:48:24.325Z,44.70
2018-05-26T08:53:15.841Z,45.60
2018-05-26T08:58:07.397Z,43.70
2018-05-26T09:02:58.908Z,43.20
2018-05-26T09:07:50.403Z,46.40
2018-05-26T09:12:42.639Z,38.60
2018-05-26T09:17:34.912Z,42.10
2018-05-26T09:22:27.225Z,41.40
2018-05-26T09:27:18.685Z,43.20
2018-05-26T09:32:11.003Z,42.00
2018-05-26T09:37:02.513Z,41.90
2018-05-26T09:41:54.039Z,42.00
2018-05-26T09:46:45.645Z,40.90
2018-05-26T09:51:37.879Z,41.10
2018-05-26T09:56:30.174Z,40.70
2018-05-26T10:01:21.614Z,40.60
2018-05-26T10:06:13.115Z,40.20
2018-05-26T10:11:05.402Z,43.80
2018-05-26T10:15:56.933Z,43.80
2018-05-26T10:20:48.442Z,42.90
2018-05-26T10:25:39.986Z,41.10
2018-05-26T10:30:31.484Z,42.00
2018-05-26T10:35:23.037Z,42.70
2018-05-26T10:40:15.314Z,42.90
2018-05-26T10:45:06.853Z,42.80
2018-05-26T10:49:58.385Z,43.50
2018-05-26T10:54:49.873Z,44.20
2018-05-26T10:59:42.138Z,45.60
2018-05-26T11:04:34.362Z,46.10
2018-05-26T11:09:25.957Z,46.00
2018-05-26T11:14:17.469Z,43.50
2018-05-26T11:19:09.051Z,42.60
2018-05-26T11:24:00.838Z,42.70
2018-05-26T11:28:53.000Z,42.50
2018-05-26T11:33:44.536Z,42.40
2018-05-26T11:38:36.133Z,42.70
2018-05-26T11:43:27.639Z,42.60
2018-05-26T11:48:19.152Z,41.00
2018-05-26T11:53:10.635Z,41.00
2018-05-26T11:58:02.146Z,40.20
2018-05-26T12:02:53.662Z,41.00
2018-05-26T12:07:45.172Z,40.10
2018-05-26T12:12:36.705Z,39.30
2018-05-26T12:17:28.333Z,38.60
2018-05-26T12:22:19.880Z,38.30
2018-05-26T12:27:11.393Z,38.60
2018-05-26T12:32:03.661Z,38.90
2018-05-26T12:36:55.168Z,38.80
2018-05-26T12:41:47.420Z,38.70
2018-05-26T12:46:39.668Z,38.70
2018-05-26T12:51:31.944Z,38.70
2018-05-26T12:56:23.449Z,38.60
2018-05-26T13:01:14.977Z,37.60
2018-05-26T13:06:06.530Z,38.10
2018-05-26T13:10:58.007Z,36.90
2018-05-26T13:15:49.523Z,36.20
2018-05-26T13:20:41.034Z,35.60
2018-05-26T13:25:33.260Z,36.30
2018-05-26T13:30:24.715Z,36.30
2018-05-26T13:35:17.817Z,36.10
2018-05-26T13:40:09.367Z,36.00
2018-05-26T13:45:00.880Z,36.10
2018-05-26T13:49:52.372Z,36.00
2018-05-26T13:54:43.879Z,35.50
2018-05-26T13:59:35.425Z,34.80
2018-05-26T14:04:26.921Z,34.50
2018-05-26T14:09:18.439Z,34.50
2018-05-26T14:14:09.942Z,35.20
2018-05-26T14:19:01.533Z,36.30
2018-05-26T14:23:53.034Z,35.30
2018-05-26T14:28:45.298Z,36.20
2018-05-26T14:33:36.792Z,36.20
2018-05-26T14:38:28.406Z,36.10
2018-05-26T14:43:19.933Z,36.20
2018-05-26T14:48:11.472Z,36.50
2018-05-26T14:53:03.016Z,36.10
2018-05-26T14:57:54.651Z,35.20
2018-05-26T15:02:46.138Z,34.50
2018-05-26T15:07:37.658Z,34.50
2018-05-26T15:12:29.912Z,32.80
2018-05-26T15:17:22.157Z,33.20
2018-05-26T15:22:14.388Z,32.90
2018-05-26T15:27:05.904Z,32.80
2018-05-26T15:31:57.396Z,32.80
2018-05-26T15:36:48.983Z,33.70
2018-05-26T15:41:40.488Z,33.70
2018-05-26T15:46:32.855Z,33.90
2018-05-26T15:51:25.078Z,33.60
2018-05-26T15:56:16.626Z,33.90
2018-05-26T16:01:08.988Z,34.00
2018-05-26T16:06:01.335Z,34.30
2018-05-26T16:10:52.839Z,33.50
2018-05-26T16:15:44.356Z,34.30
2018-05-26T16:20:36.628Z,35.80
2018-05-26T16:25:28.113Z,35.80
2018-05-26T16:30:19.655Z,36.60
2018-05-26T16:35:11.153Z,37.10
2018-05-26T16:40:02.700Z,36.60
2018-05-26T16:44:54.941Z,37.30
2018-05-26T16:49:46.449Z,37.20
2018-05-26T16:54:37.943Z,37.60
2018-05-26T16:59:29.528Z,38.00
2018-05-26T17:04:21.033Z,38.10
2018-05-26T17:09:13.299Z,39.00
2018-05-26T17:14:04.810Z,38.90
2018-05-26T17:18:57.124Z,38.60
2018-05-26T17:23:48.697Z,38.50
2018-05-26T17:28:41.076Z,38.60
2018-05-26T17:33:32.583Z,38.60
2018-05-26T17:38:24.872Z,39.40
2018-05-26T17:43:16.427Z,39.40
2018-05-26T17:48:07.945Z,40.00
2018-05-26T17:52:59.460Z,40.20
2018-05-26T17:57:50.975Z,40.20
2018-05-26T18:02:43.228Z,40.90
2018-05-26T18:07:34.702Z,40.80
2018-05-26T18:12:26.307Z,41.50
2018-05-26T18:17:18.536Z,42.60
2018-05-26T18:22:10.793Z,43.20
2018-05-26T18:27:03.064Z,43.50
2018-05-26T18:31:55.297Z,43.00
2018-05-26T18:36:47.520Z,43.80
2018-05-26T18:41:39.029Z,43.70
2018-05-26T18:46:30.568Z,44.70
2018-05-26T18:51:22.072Z,45.50
2018-05-26T18:56:13.596Z,46.00
2018-05-26T19:01:05.855Z,47.00
2018-05-26T19:05:57.353Z,47.00
2018-05-26T19:10:48.862Z,47.60
2018-05-26T19:15:40.374Z,48.10
2018-05-26T19:20:31.915Z,48.60
2018-05-26T19:25:23.430Z,49.20
2018-05-26T19:30:14.929Z,49.90
2018-05-26T19:35:06.518Z,50.60
2018-05-26T19:39:58.046Z,51.40
2018-05-26T19:44:50.427Z,51.80
2018-05-26T19:49:41.928Z,52.00
2018-05-26T19:54:33.409Z,52.60
2018-05-26T19:59:25.025Z,52.90
2018-05-26T20:04:16.510Z,53.40
2018-05-26T20:09:08.800Z,54.20
2018-05-26T20:14:00.298Z,54.20
2018-05-26T20:18:52.564Z,54.70
2018-05-26T20:23:44.069Z,54.70
2018-05-26T20:28:36.328Z,55.60
2018-05-26T20:33:28.572Z,56.10
2018-05-26T20:38:20.811Z,56.90
2018-05-26T20:43:12.307Z,56.80
2018-05-26T20:48:03.958Z,57.10
2018-05-26T20:52:55.502Z,57.70
2018-05-26T20:57:47.001Z,58.20
2018-05-26T21:02:38.485Z,58.60
2018-05-26T21:07:30.099Z,58.80
2018-05-26T21:12:21.597Z,59.40
2018-05-26T21:17:13.103Z,60.00
2018-05-26T21:22:05.384Z,61.50
2018-05-26T21:26:56.901Z,61.30
2018-05-26T21:31:48.423Z,61.90
2018-05-26T21:36:40.696Z,62.60
2018-05-26T21:41:32.232Z,62.40
2018-05-26T21:46:23.748Z,63.00
2018-05-26T21:51:16.019Z,64.10
2018-05-26T21:56:07.546Z,64.00
2018-05-26T22:00:59.045Z,64.20
2018-05-26T22:05:50.563Z,64.70
2018-05-26T22:10:42.575Z,65.20
2018-05-26T22:15:34.106Z,65.80
2018-05-26T22:20:25.691Z,66.60
2018-05-26T22:25:17.188Z,67.20
2018-05-26T22:30:08.749Z,68.00
2018-05-26T22:35:00.279Z,68.50
2018-05-26T22:39:51.827Z,69.00
2018-05-26T22:44:43.321Z,69.60
2018-05-26T22:49:34.833Z,70.10
2018-05-26T22:54:26.375Z,70.70
2018-05-26T22:59:17.921Z,71.30
2018-05-26T23:04:09.508Z,71.90
2018-05-26T23:09:01.746Z,72.10
2018-05-26T23:13:53.292Z,72.10
2018-05-26T23:18:45.557Z,73.50
2018-05-26T23:23:37.785Z,74.50
2018-05-26T23:28:29.367Z,74.50
2018-05-26T23:33:20.861Z,75.30
2018-05-26T23:38:13.099Z,77.10
2018-05-26T23:43:04.616Z,76.30
2018-05-26T23:47:56.112Z,76.90
2018-05-26T23:52:47.609Z,77.20
2018-05-26T23:57:39.204Z,77.40
